Blue River Lodge, Nebraska
Current Conditions -  °F | °C
As of 9:54 PM on Saturday 24 Jan 2015 (Local Time) from KLNK Reporting Station
Overcast Overcast  
Wind Chill: 50°   Ceiling: 6000
Heat Index: 50°   Visibility: 10mi
Dew Point: 41°   Wind: 18mph
Humidity: 71%   Direction: 290°WNW
Pressure: 29.66"   Gusts: 26mph
Location:  40.5918°N, 96.9749°W
Report Text: KLNK 250354Z 29016G23KT 10SM BKN060 OVC080 10/05 A2966 RMK AO2 RAB0257E28 SLP046 P0001 T01000050
Loading
Personal Weather Stations






























Interactive Weather Map New forecast layout! Learn more

10-Day Weather Forecast

Advertisements
Track Severe Weather on mobile